sensor_id;sensor_type;location;lat;lon;timestamp;P1;durP1;ratioP1;P2;durP2;ratioP2
9128;SDS011;4599;50.906;6.786;2023-02-24T00:00:05;24.30;;;13.73;;
9128;SDS011;4599;50.906;6.786;2023-02-24T00:04:09;30.83;;;17.37;;
9128;SDS011;4599;50.906;6.786;2023-02-24T00:08:12;37.20;;;20.37;;
9128;SDS011;4599;50.906;6.786;2023-02-24T00:12:14;45.13;;;25.00;;
9128;SDS011;4599;50.906;6.786;2023-02-24T00:16:16;48.63;;;26.17;;
9128;SDS011;4599;50.906;6.786;2023-02-24T00:20:19;47.33;;;23.90;;
9128;SDS011;4599;50.906;6.786;2023-02-24T00:24:21;50.73;;;26.30;;
9128;SDS011;4599;50.906;6.786;2023-02-24T00:28:23;56.37;;;27.17;;
9128;SDS011;4599;50.906;6.786;2023-02-24T00:32:24;49.90;;;25.80;;
9128;SDS011;4599;50.906;6.786;2023-02-24T00:36:28;50.20;;;24.67;;
9128;SDS011;4599;50.906;6.786;2023-02-24T00:40:31;49.10;;;22.83;;
9128;SDS011;4599;50.906;6.786;2023-02-24T00:44:33;48.83;;;23.97;;
9128;SDS011;4599;50.906;6.786;2023-02-24T00:48:36;49.10;;;23.67;;
9128;SDS011;4599;50.906;6.786;2023-02-24T00:52:40;48.17;;;24.77;;
9128;SDS011;4599;50.906;6.786;2023-02-24T00:56:41;45.73;;;23.00;;
9128;SDS011;4599;50.906;6.786;2023-02-24T01:00:44;46.73;;;22.37;;
9128;SDS011;4599;50.906;6.786;2023-02-24T01:04:45;46.40;;;23.13;;
9128;SDS011;4599;50.906;6.786;2023-02-24T01:08:49;55.60;;;23.23;;
9128;SDS011;4599;50.906;6.786;2023-02-24T01:12:52;40.80;;;20.50;;
9128;SDS011;4599;50.906;6.786;2023-02-24T01:16:54;43.23;;;18.83;;
9128;SDS011;4599;50.906;6.786;2023-02-24T01:20:56;52.30;;;21.23;;
9128;SDS011;4599;50.906;6.786;2023-02-24T01:24:59;44.80;;;19.37;;
9128;SDS011;4599;50.906;6.786;2023-02-24T01:29:01;43.50;;;17.00;;
9128;SDS011;4599;50.906;6.786;2023-02-24T01:33:02;37.17;;;14.27;;
9128;SDS011;4599;50.906;6.786;2023-02-24T01:37:04;34.93;;;12.83;;
9128;SDS011;4599;50.906;6.786;2023-02-24T01:41:07;36.03;;;13.60;;
9128;SDS011;4599;50.906;6.786;2023-02-24T01:45:11;34.07;;;11.83;;
9128;SDS011;4599;50.906;6.786;2023-02-24T01:49:16;35.73;;;13.53;;
9128;SDS011;4599;50.906;6.786;2023-02-24T01:53:21;34.03;;;13.83;;
9128;SDS011;4599;50.906;6.786;2023-02-24T01:57:25;37.23;;;14.53;;
9128;SDS011;4599;50.906;6.786;2023-02-24T02:01:31;36.70;;;15.03;;
9128;SDS011;4599;50.906;6.786;2023-02-24T02:05:33;42.27;;;15.37;;
9128;SDS011;4599;50.906;6.786;2023-02-24T02:09:34;43.93;;;15.77;;
9128;SDS011;4599;50.906;6.786;2023-02-24T02:13:38;41.00;;;16.30;;
9128;SDS011;4599;50.906;6.786;2023-02-24T02:17:46;46.40;;;15.53;;
9128;SDS011;4599;50.906;6.786;2023-02-24T02:22:06;40.40;;;15.73;;
9128;SDS011;4599;50.906;6.786;2023-02-24T02:26:45;37.13;;;15.07;;
9128;SDS011;4599;50.906;6.786;2023-02-24T02:31:08;35.73;;;14.73;;
9128;SDS011;4599;50.906;6.786;2023-02-24T02:35:25;41.00;;;15.47;;
9128;SDS011;4599;50.906;6.786;2023-02-24T02:39:30;33.53;;;13.27;;
9128;SDS011;4599;50.906;6.786;2023-02-24T02:43:45;31.90;;;12.50;;
9128;SDS011;4599;50.906;6.786;2023-02-24T02:47:52;33.30;;;12.70;;
9128;SDS011;4599;50.906;6.786;2023-02-24T02:52:01;31.07;;;12.17;;
9128;SDS011;4599;50.906;6.786;2023-02-24T02:56:07;44.70;;;15.77;;
9128;SDS011;4599;50.906;6.786;2023-02-24T03:00:13;40.77;;;15.17;;
9128;SDS011;4599;50.906;6.786;2023-02-24T03:04:19;40.10;;;14.50;;
9128;SDS011;4599;50.906;6.786;2023-02-24T03:08:25;40.30;;;13.03;;
9128;SDS011;4599;50.906;6.786;2023-02-24T03:12:30;31.90;;;12.83;;
9128;SDS011;4599;50.906;6.786;2023-02-24T03:16:33;38.57;;;11.23;;
9128;SDS011;4599;50.906;6.786;2023-02-24T03:20:38;37.83;;;9.63;;
9128;SDS011;4599;50.906;6.786;2023-02-24T03:24:43;34.60;;;10.53;;
9128;SDS011;4599;50.906;6.786;2023-02-24T03:28:48;27.37;;;9.57;;
9128;SDS011;4599;50.906;6.786;2023-02-24T03:32:55;33.47;;;9.90;;
9128;SDS011;4599;50.906;6.786;2023-02-24T03:37:00;32.73;;;9.73;;
9128;SDS011;4599;50.906;6.786;2023-02-24T03:41:03;28.47;;;8.60;;
9128;SDS011;4599;50.906;6.786;2023-02-24T03:45:05;28.60;;;8.27;;
9128;SDS011;4599;50.906;6.786;2023-02-24T03:49:10;23.60;;;8.07;;
9128;SDS011;4599;50.906;6.786;2023-02-24T03:53:16;28.03;;;7.87;;
9128;SDS011;4599;50.906;6.786;2023-02-24T03:57:31;26.63;;;6.83;;
9128;SDS011;4599;50.906;6.786;2023-02-24T04:01:44;22.70;;;5.30;;
9128;SDS011;4599;50.906;6.786;2023-02-24T04:05:53;24.60;;;5.23;;
9128;SDS011;4599;50.906;6.786;2023-02-24T04:10:07;22.77;;;4.63;;
9128;SDS011;4599;50.906;6.786;2023-02-24T04:14:18;19.73;;;3.90;;
9128;SDS011;4599;50.906;6.786;2023-02-24T04:18:25;19.73;;;5.17;;
9128;SDS011;4599;50.906;6.786;2023-02-24T04:22:29;23.63;;;4.10;;
9128;SDS011;4599;50.906;6.786;2023-02-24T04:26:31;15.60;;;3.53;;
9128;SDS011;4599;50.906;6.786;2023-02-24T04:30:39;22.67;;;3.63;;
9128;SDS011;4599;50.906;6.786;2023-02-24T04:34:43;16.20;;;4.00;;
9128;SDS011;4599;50.906;6.786;2023-02-24T04:38:45;16.30;;;2.97;;
9128;SDS011;4599;50.906;6.786;2023-02-24T04:42:47;26.53;;;4.23;;
9128;SDS011;4599;50.906;6.786;2023-02-24T04:46:51;16.23;;;3.40;;
9128;SDS011;4599;50.906;6.786;2023-02-24T04:50:52;25.10;;;3.33;;
9128;SDS011;4599;50.906;6.786;2023-02-24T04:54:54;17.70;;;4.23;;
9128;SDS011;4599;50.906;6.786;2023-02-24T04:58:55;12.40;;;3.10;;
9128;SDS011;4599;50.906;6.786;2023-02-24T05:02:59;19.20;;;3.40;;
9128;SDS011;4599;50.906;6.786;2023-02-24T05:07:01;14.63;;;3.33;;
9128;SDS011;4599;50.906;6.786;2023-02-24T05:11:03;22.63;;;3.27;;
9128;SDS011;4599;50.906;6.786;2023-02-24T05:15:05;22.90;;;3.67;;
9128;SDS011;4599;50.906;6.786;2023-02-24T05:19:11;20.37;;;3.80;;
9128;SDS011;4599;50.906;6.786;2023-02-24T05:23:14;18.90;;;2.73;;
9128;SDS011;4599;50.906;6.786;2023-02-24T05:27:16;12.53;;;3.00;;
9128;SDS011;4599;50.906;6.786;2023-02-24T05:31:19;14.50;;;3.00;;
9128;SDS011;4599;50.906;6.786;2023-02-24T05:35:23;15.63;;;3.00;;
9128;SDS011;4599;50.906;6.786;2023-02-24T05:39:25;19.73;;;3.13;;
9128;SDS011;4599;50.906;6.786;2023-02-24T05:43:27;12.37;;;3.00;;
9128;SDS011;4599;50.906;6.786;2023-02-24T05:47:28;20.63;;;3.70;;
9128;SDS011;4599;50.906;6.786;2023-02-24T05:51:31;12.47;;;2.70;;
9128;SDS011;4599;50.906;6.786;2023-02-24T05:55:33;15.80;;;2.77;;
9128;SDS011;4599;50.906;6.786;2023-02-24T05:59:34;17.53;;;3.23;;
9128;SDS011;4599;50.906;6.786;2023-02-24T06:03:36;21.83;;;3.30;;
9128;SDS011;4599;50.906;6.786;2023-02-24T06:07:38;14.40;;;3.50;;
9128;SDS011;4599;50.906;6.786;2023-02-24T06:11:40;16.90;;;3.17;;
9128;SDS011;4599;50.906;6.786;2023-02-24T06:15:43;15.57;;;3.50;;
9128;SDS011;4599;50.906;6.786;2023-02-24T06:19:46;16.53;;;3.10;;
9128;SDS011;4599;50.906;6.786;2023-02-24T06:23:52;15.43;;;2.67;;
9128;SDS011;4599;50.906;6.786;2023-02-24T06:27:54;15.07;;;3.00;;
9128;SDS011;4599;50.906;6.786;2023-02-24T06:31:56;12.60;;;2.83;;
9128;SDS011;4599;50.906;6.786;2023-02-24T06:35:58;23.50;;;3.37;;
9128;SDS011;4599;50.906;6.786;2023-02-24T06:40:01;15.50;;;2.77;;
9128;SDS011;4599;50.906;6.786;2023-02-24T06:44:02;13.67;;;3.30;;
9128;SDS011;4599;50.906;6.786;2023-02-24T06:48:04;18.00;;;3.03;;
9128;SDS011;4599;50.906;6.786;2023-02-24T06:52:06;15.63;;;3.67;;
9128;SDS011;4599;50.906;6.786;2023-02-24T06:56:10;23.33;;;4.20;;
9128;SDS011;4599;50.906;6.786;2023-02-24T07:00:12;22.27;;;3.83;;
9128;SDS011;4599;50.906;6.786;2023-02-24T07:04:14;15.77;;;3.07;;
9128;SDS011;4599;50.906;6.786;2023-02-24T07:08:18;18.47;;;3.50;;
9128;SDS011;4599;50.906;6.786;2023-02-24T07:12:22;15.97;;;3.10;;
9128;SDS011;4599;50.906;6.786;2023-02-24T07:16:24;16.77;;;3.40;;
9128;SDS011;4599;50.906;6.786;2023-02-24T07:20:26;15.33;;;3.70;;
9128;SDS011;4599;50.906;6.786;2023-02-24T07:24:28;14.70;;;3.00;;
9128;SDS011;4599;50.906;6.786;2023-02-24T07:28:32;16.73;;;3.30;;
9128;SDS011;4599;50.906;6.786;2023-02-24T07:32:33;15.03;;;4.07;;
9128;SDS011;4599;50.906;6.786;2023-02-24T07:36:35;15.70;;;3.03;;
9128;SDS011;4599;50.906;6.786;2023-02-24T07:40:36;17.83;;;3.10;;
9128;SDS011;4599;50.906;6.786;2023-02-24T07:44:40;18.70;;;3.40;;
9128;SDS011;4599;50.906;6.786;2023-02-24T07:48:41;21.10;;;3.60;;
9128;SDS011;4599;50.906;6.786;2023-02-24T07:52:43;17.63;;;3.50;;
9128;SDS011;4599;50.906;6.786;2023-02-24T07:56:46;22.23;;;2.73;;
9128;SDS011;4599;50.906;6.786;2023-02-24T08:00:49;17.30;;;3.40;;
9128;SDS011;4599;50.906;6.786;2023-02-24T08:04:50;14.83;;;3.20;;
9128;SDS011;4599;50.906;6.786;2023-02-24T08:08:52;16.87;;;2.97;;
9128;SDS011;4599;50.906;6.786;2023-02-24T08:12:55;12.90;;;2.67;;
9128;SDS011;4599;50.906;6.786;2023-02-24T08:16:58;18.40;;;3.40;;
9128;SDS011;4599;50.906;6.786;2023-02-24T08:20:59;17.00;;;4.17;;
9128;SDS011;4599;50.906;6.786;2023-02-24T08:25:01;19.13;;;4.17;;
9128;SDS011;4599;50.906;6.786;2023-02-24T08:29:03;19.27;;;4.43;;
9128;SDS011;4599;50.906;6.786;2023-02-24T08:33:06;27.07;;;4.50;;
9128;SDS011;4599;50.906;6.786;2023-02-24T08:37:09;25.37;;;5.13;;
9128;SDS011;4599;50.906;6.786;2023-02-24T08:41:12;25.40;;;3.93;;
9128;SDS011;4599;50.906;6.786;2023-02-24T08:45:14;21.67;;;4.53;;
9128;SDS011;4599;50.906;6.786;2023-02-24T08:49:17;19.37;;;3.70;;
9128;SDS011;4599;50.906;6.786;2023-02-24T08:53:19;24.40;;;3.43;;
9128;SDS011;4599;50.906;6.786;2023-02-24T08:57:21;18.23;;;3.50;;
9128;SDS011;4599;50.906;6.786;2023-02-24T09:01:24;16.17;;;3.53;;
9128;SDS011;4599;50.906;6.786;2023-02-24T09:05:29;10.73;;;2.87;;
9128;SDS011;4599;50.906;6.786;2023-02-24T09:09:30;15.97;;;3.30;;
9128;SDS011;4599;50.906;6.786;2023-02-24T09:13:32;16.60;;;3.27;;
9128;SDS011;4599;50.906;6.786;2023-02-24T09:17:35;13.93;;;2.63;;
9128;SDS011;4599;50.906;6.786;2023-02-24T09:21:38;14.97;;;2.90;;
9128;SDS011;4599;50.906;6.786;2023-02-24T09:25:40;11.17;;;2.73;;
9128;SDS011;4599;50.906;6.786;2023-02-24T09:29:41;19.13;;;3.23;;
9128;SDS011;4599;50.906;6.786;2023-02-24T09:33:43;15.37;;;3.20;;
9128;SDS011;4599;50.906;6.786;2023-02-24T09:37:46;11.83;;;2.47;;
9128;SDS011;4599;50.906;6.786;2023-02-24T09:41:47;13.47;;;2.97;;
9128;SDS011;4599;50.906;6.786;2023-02-24T09:45:53;10.57;;;2.57;;
9128;SDS011;4599;50.906;6.786;2023-02-24T09:50:02;13.23;;;2.87;;
9128;SDS011;4599;50.906;6.786;2023-02-24T09:54:13;11.97;;;2.97;;
9128;SDS011;4599;50.906;6.786;2023-02-24T09:58:17;13.80;;;3.70;;
9128;SDS011;4599;50.906;6.786;2023-02-24T10:02:36;11.23;;;3.13;;
9128;SDS011;4599;50.906;6.786;2023-02-24T10:06:45;9.33;;;2.90;;
9128;SDS011;4599;50.906;6.786;2023-02-24T10:10:50;12.13;;;3.13;;
9128;SDS011;4599;50.906;6.786;2023-02-24T10:14:55;11.60;;;3.30;;
9128;SDS011;4599;50.906;6.786;2023-02-24T10:19:02;12.10;;;3.40;;
9128;SDS011;4599;50.906;6.786;2023-02-24T10:23:12;10.37;;;3.57;;
9128;SDS011;4599;50.906;6.786;2023-02-24T10:27:20;14.50;;;3.53;;
9128;SDS011;4599;50.906;6.786;2023-02-24T10:31:25;10.27;;;3.03;;
9128;SDS011;4599;50.906;6.786;2023-02-24T10:35:30;10.17;;;2.90;;
9128;SDS011;4599;50.906;6.786;2023-02-24T10:39:31;9.27;;;2.93;;
9128;SDS011;4599;50.906;6.786;2023-02-24T10:43:37;16.33;;;3.07;;
9128;SDS011;4599;50.906;6.786;2023-02-24T10:47:39;12.20;;;3.27;;
9128;SDS011;4599;50.906;6.786;2023-02-24T10:51:41;11.30;;;2.97;;
9128;SDS011;4599;50.906;6.786;2023-02-24T10:55:47;13.53;;;3.20;;
9128;SDS011;4599;50.906;6.786;2023-02-24T10:59:53;8.67;;;2.53;;
9128;SDS011;4599;50.906;6.786;2023-02-24T11:03:59;6.63;;;2.90;;
9128;SDS011;4599;50.906;6.786;2023-02-24T11:08:04;9.47;;;3.20;;
9128;SDS011;4599;50.906;6.786;2023-02-24T11:12:11;9.27;;;2.57;;
9128;SDS011;4599;50.906;6.786;2023-02-24T11:16:16;11.17;;;3.30;;
9128;SDS011;4599;50.906;6.786;2023-02-24T11:20:23;15.33;;;3.33;;
9128;SDS011;4599;50.906;6.786;2023-02-24T11:24:49;12.17;;;2.80;;
9128;SDS011;4599;50.906;6.786;2023-02-24T11:28:56;10.63;;;2.60;;
9128;SDS011;4599;50.906;6.786;2023-02-24T11:33:10;11.73;;;3.20;;
9128;SDS011;4599;50.906;6.786;2023-02-24T11:37:22;14.60;;;3.93;;
9128;SDS011;4599;50.906;6.786;2023-02-24T11:41:32;12.87;;;3.13;;
9128;SDS011;4599;50.906;6.786;2023-02-24T11:45:38;12.63;;;3.67;;
9128;SDS011;4599;50.906;6.786;2023-02-24T11:49:45;13.90;;;3.50;;
9128;SDS011;4599;50.906;6.786;2023-02-24T11:53:51;13.97;;;3.20;;
9128;SDS011;4599;50.906;6.786;2023-02-24T11:57:55;12.73;;;3.03;;
9128;SDS011;4599;50.906;6.786;2023-02-24T12:02:01;12.83;;;3.30;;
9128;SDS011;4599;50.906;6.786;2023-02-24T12:06:15;12.43;;;3.33;;
9128;SDS011;4599;50.906;6.786;2023-02-24T12:10:23;12.70;;;3.03;;
9128;SDS011;4599;50.906;6.786;2023-02-24T12:14:30;13.37;;;3.30;;
9128;SDS011;4599;50.906;6.786;2023-02-24T12:18:36;14.03;;;3.50;;
9128;SDS011;4599;50.906;6.786;2023-02-24T12:22:42;11.60;;;3.30;;
9128;SDS011;4599;50.906;6.786;2023-02-24T12:26:50;9.47;;;3.20;;
9128;SDS011;4599;50.906;6.786;2023-02-24T12:31:05;10.53;;;3.03;;
9128;SDS011;4599;50.906;6.786;2023-02-24T12:35:11;9.73;;;3.67;;
9128;SDS011;4599;50.906;6.786;2023-02-24T12:39:24;11.53;;;2.80;;
9128;SDS011;4599;50.906;6.786;2023-02-24T12:43:30;9.13;;;3.23;;
9128;SDS011;4599;50.906;6.786;2023-02-24T12:47:37;11.70;;;4.23;;
9128;SDS011;4599;50.906;6.786;2023-02-24T12:51:46;11.60;;;4.37;;
9128;SDS011;4599;50.906;6.786;2023-02-24T12:55:59;12.33;;;3.93;;
9128;SDS011;4599;50.906;6.786;2023-02-24T13:00:08;13.47;;;3.90;;
9128;SDS011;4599;50.906;6.786;2023-02-24T13:04:18;8.27;;;3.60;;
9128;SDS011;4599;50.906;6.786;2023-02-24T13:08:33;11.50;;;4.23;;
9128;SDS011;4599;50.906;6.786;2023-02-24T13:12:46;14.37;;;4.47;;
9128;SDS011;4599;50.906;6.786;2023-02-24T13:17:01;16.40;;;4.07;;
9128;SDS011;4599;50.906;6.786;2023-02-24T13:21:06;14.03;;;4.13;;
9128;SDS011;4599;50.906;6.786;2023-02-24T13:25:15;16.93;;;4.43;;
9128;SDS011;4599;50.906;6.786;2023-02-24T13:29:21;17.23;;;4.17;;
9128;SDS011;4599;50.906;6.786;2023-02-24T13:33:23;18.73;;;4.53;;
9128;SDS011;4599;50.906;6.786;2023-02-24T13:37:34;16.23;;;4.50;;
9128;SDS011;4599;50.906;6.786;2023-02-24T13:41:38;11.60;;;4.43;;
9128;SDS011;4599;50.906;6.786;2023-02-24T13:45:41;9.90;;;4.17;;
9128;SDS011;4599;50.906;6.786;2023-02-24T13:50:02;12.10;;;4.37;;
9128;SDS011;4599;50.906;6.786;2023-02-24T13:54:26;17.93;;;4.37;;
9128;SDS011;4599;50.906;6.786;2023-02-24T14:03:23;14.93;;;3.90;;
9128;SDS011;4599;50.906;6.786;2023-02-24T14:07:27;11.93;;;3.60;;
9128;SDS011;4599;50.906;6.786;2023-02-24T14:11:33;10.93;;;3.20;;
9128;SDS011;4599;50.906;6.786;2023-02-24T14:15:38;9.93;;;3.17;;
9128;SDS011;4599;50.906;6.786;2023-02-24T14:19:44;15.57;;;3.47;;
9128;SDS011;4599;50.906;6.786;2023-02-24T14:23:53;11.53;;;2.90;;
9128;SDS011;4599;50.906;6.786;2023-02-24T14:27:55;11.10;;;3.23;;
9128;SDS011;4599;50.906;6.786;2023-02-24T14:31:58;9.60;;;3.00;;
9128;SDS011;4599;50.906;6.786;2023-02-24T14:36:01;13.90;;;3.53;;
9128;SDS011;4599;50.906;6.786;2023-02-24T14:40:12;12.00;;;3.67;;
9128;SDS011;4599;50.906;6.786;2023-02-24T14:44:20;7.53;;;3.33;;
9128;SDS011;4599;50.906;6.786;2023-02-24T14:48:24;8.57;;;3.50;;
9128;SDS011;4599;50.906;6.786;2023-02-24T14:52:29;17.67;;;4.07;;
9128;SDS011;4599;50.906;6.786;2023-02-24T14:56:35;14.03;;;3.37;;
9128;SDS011;4599;50.906;6.786;2023-02-24T15:00:38;16.20;;;3.60;;
9128;SDS011;4599;50.906;6.786;2023-02-24T15:04:43;7.07;;;3.03;;
9128;SDS011;4599;50.906;6.786;2023-02-24T15:08:49;12.10;;;3.80;;
9128;SDS011;4599;50.906;6.786;2023-02-24T15:12:55;12.93;;;3.20;;
9128;SDS011;4599;50.906;6.786;2023-02-24T15:17:02;15.13;;;3.70;;
9128;SDS011;4599;50.906;6.786;2023-02-24T15:21:17;12.67;;;3.70;;
9128;SDS011;4599;50.906;6.786;2023-02-24T15:25:25;16.83;;;3.90;;
9128;SDS011;4599;50.906;6.786;2023-02-24T15:29:43;15.93;;;3.67;;
9128;SDS011;4599;50.906;6.786;2023-02-24T15:33:57;11.67;;;4.03;;
9128;SDS011;4599;50.906;6.786;2023-02-24T15:38:00;8.30;;;3.03;;
9128;SDS011;4599;50.906;6.786;2023-02-24T15:42:07;8.00;;;3.30;;
9128;SDS011;4599;50.906;6.786;2023-02-24T15:46:14;12.37;;;3.83;;
9128;SDS011;4599;50.906;6.786;2023-02-24T15:50:28;7.20;;;3.60;;
9128;SDS011;4599;50.906;6.786;2023-02-24T15:54:33;10.03;;;3.80;;
9128;SDS011;4599;50.906;6.786;2023-02-24T15:58:37;13.80;;;3.80;;
9128;SDS011;4599;50.906;6.786;2023-02-24T16:02:41;14.47;;;3.67;;
9128;SDS011;4599;50.906;6.786;2023-02-24T16:06:44;17.30;;;4.40;;
9128;SDS011;4599;50.906;6.786;2023-02-24T16:10:48;16.07;;;3.83;;
9128;SDS011;4599;50.906;6.786;2023-02-24T16:14:51;11.53;;;3.90;;
9128;SDS011;4599;50.906;6.786;2023-02-24T16:18:52;15.60;;;4.20;;
9128;SDS011;4599;50.906;6.786;2023-02-24T16:22:54;10.03;;;4.00;;
9128;SDS011;4599;50.906;6.786;2023-02-24T16:26:56;12.70;;;4.30;;
9128;SDS011;4599;50.906;6.786;2023-02-24T16:30:59;9.17;;;3.80;;
9128;SDS011;4599;50.906;6.786;2023-02-24T16:35:01;10.63;;;3.90;;
9128;SDS011;4599;50.906;6.786;2023-02-24T16:39:02;11.53;;;4.10;;
9128;SDS011;4599;50.906;6.786;2023-02-24T16:43:04;7.13;;;3.50;;
9128;SDS011;4599;50.906;6.786;2023-02-24T16:47:07;9.43;;;4.50;;
9128;SDS011;4599;50.906;6.786;2023-02-24T16:51:14;11.10;;;4.53;;
9128;SDS011;4599;50.906;6.786;2023-02-24T16:55:16;10.90;;;4.30;;
9128;SDS011;4599;50.906;6.786;2023-02-24T16:59:18;14.67;;;4.67;;
9128;SDS011;4599;50.906;6.786;2023-02-24T17:03:21;11.00;;;5.00;;
9128;SDS011;4599;50.906;6.786;2023-02-24T17:07:24;11.37;;;4.73;;
9128;SDS011;4599;50.906;6.786;2023-02-24T17:11:26;10.97;;;5.50;;
9128;SDS011;4599;50.906;6.786;2023-02-24T17:15:28;14.03;;;5.73;;
9128;SDS011;4599;50.906;6.786;2023-02-24T17:19:32;13.93;;;6.40;;
9128;SDS011;4599;50.906;6.786;2023-02-24T17:23:33;12.17;;;6.23;;
9128;SDS011;4599;50.906;6.786;2023-02-24T17:27:34;15.87;;;7.03;;
9128;SDS011;4599;50.906;6.786;2023-02-24T17:36:34;14.63;;;6.67;;
9128;SDS011;4599;50.906;6.786;2023-02-24T17:40:36;15.50;;;7.33;;
9128;SDS011;4599;50.906;6.786;2023-02-24T17:49:56;13.10;;;6.97;;
9128;SDS011;4599;50.906;6.786;2023-02-24T17:53:59;11.63;;;4.80;;
9128;SDS011;4599;50.906;6.786;2023-02-24T17:58:00;7.13;;;4.23;;
9128;SDS011;4599;50.906;6.786;2023-02-24T18:02:02;6.80;;;3.83;;
9128;SDS011;4599;50.906;6.786;2023-02-24T18:06:05;8.77;;;4.67;;
9128;SDS011;4599;50.906;6.786;2023-02-24T18:10:10;10.80;;;6.07;;
9128;SDS011;4599;50.906;6.786;2023-02-24T18:14:13;9.73;;;6.30;;
9128;SDS011;4599;50.906;6.786;2023-02-24T18:18:14;13.27;;;7.43;;
9128;SDS011;4599;50.906;6.786;2023-02-24T18:22:15;12.63;;;7.50;;
9128;SDS011;4599;50.906;6.786;2023-02-24T18:26:18;16.87;;;9.60;;
9128;SDS011;4599;50.906;6.786;2023-02-24T18:30:24;15.37;;;9.20;;
9128;SDS011;4599;50.906;6.786;2023-02-24T18:34:25;15.60;;;10.07;;
9128;SDS011;4599;50.906;6.786;2023-02-24T18:38:27;22.83;;;11.53;;
9128;SDS011;4599;50.906;6.786;2023-02-24T18:42:30;23.47;;;10.67;;
9128;SDS011;4599;50.906;6.786;2023-02-24T18:46:32;21.43;;;11.47;;
9128;SDS011;4599;50.906;6.786;2023-02-24T18:50:33;23.97;;;11.60;;
9128;SDS011;4599;50.906;6.786;2023-02-24T18:54:35;25.23;;;12.00;;
9128;SDS011;4599;50.906;6.786;2023-02-24T18:58:38;20.67;;;10.87;;
9128;SDS011;4599;50.906;6.786;2023-02-24T19:02:40;24.40;;;12.00;;
9128;SDS011;4599;50.906;6.786;2023-02-24T19:06:41;21.30;;;10.40;;
9128;SDS011;4599;50.906;6.786;2023-02-24T19:10:43;18.67;;;10.90;;
9128;SDS011;4599;50.906;6.786;2023-02-24T19:14:46;24.07;;;9.97;;
9128;SDS011;4599;50.906;6.786;2023-02-24T19:18:51;21.17;;;9.03;;
9128;SDS011;4599;50.906;6.786;2023-02-24T19:22:53;15.97;;;8.30;;
9128;SDS011;4599;50.906;6.786;2023-02-24T19:26:55;22.10;;;8.73;;
9128;SDS011;4599;50.906;6.786;2023-02-24T19:31:00;16.03;;;7.23;;
9128;SDS011;4599;50.906;6.786;2023-02-24T19:35:01;15.07;;;5.63;;
9128;SDS011;4599;50.906;6.786;2023-02-24T19:39:03;13.83;;;4.83;;
9128;SDS011;4599;50.906;6.786;2023-02-24T19:43:05;9.73;;;4.00;;
9128;SDS011;4599;50.906;6.786;2023-02-24T19:47:08;10.03;;;4.60;;
9128;SDS011;4599;50.906;6.786;2023-02-24T19:55:35;8.87;;;3.10;;
9128;SDS011;4599;50.906;6.786;2023-02-24T19:59:38;9.83;;;2.70;;
9128;SDS011;4599;50.906;6.786;2023-02-24T20:03:41;8.30;;;2.63;;
9128;SDS011;4599;50.906;6.786;2023-02-24T20:07:43;7.97;;;2.87;;
9128;SDS011;4599;50.906;6.786;2023-02-24T20:11:44;11.40;;;2.70;;
9128;SDS011;4599;50.906;6.786;2023-02-24T20:15:47;7.63;;;2.30;;
9128;SDS011;4599;50.906;6.786;2023-02-24T20:19:50;8.73;;;2.17;;
9128;SDS011;4599;50.906;6.786;2023-02-24T20:23:51;9.50;;;2.60;;
9128;SDS011;4599;50.906;6.786;2023-02-24T20:27:52;9.03;;;1.90;;
9128;SDS011;4599;50.906;6.786;2023-02-24T20:31:54;7.77;;;2.10;;
9128;SDS011;4599;50.906;6.786;2023-02-24T20:35:57;5.50;;;1.83;;
9128;SDS011;4599;50.906;6.786;2023-02-24T20:39:58;7.93;;;1.93;;
9128;SDS011;4599;50.906;6.786;2023-02-24T20:44:00;6.77;;;1.50;;
9128;SDS011;4599;50.906;6.786;2023-02-24T20:48:01;4.47;;;1.63;;
9128;SDS011;4599;50.906;6.786;2023-02-24T20:52:04;6.60;;;1.53;;
9128;SDS011;4599;50.906;6.786;2023-02-24T20:56:06;6.50;;;1.63;;
9128;SDS011;4599;50.906;6.786;2023-02-24T21:00:10;7.10;;;1.57;;
9128;SDS011;4599;50.906;6.786;2023-02-24T21:04:13;5.37;;;1.67;;
9128;SDS011;4599;50.906;6.786;2023-02-24T21:08:17;10.30;;;2.00;;
9128;SDS011;4599;50.906;6.786;2023-02-24T21:12:19;5.80;;;1.80;;
9128;SDS011;4599;50.906;6.786;2023-02-24T21:16:20;9.07;;;2.20;;
9128;SDS011;4599;50.906;6.786;2023-02-24T21:20:22;8.80;;;2.10;;
9128;SDS011;4599;50.906;6.786;2023-02-24T21:24:25;7.33;;;1.93;;
9128;SDS011;4599;50.906;6.786;2023-02-24T21:28:27;13.23;;;2.40;;
9128;SDS011;4599;50.906;6.786;2023-02-24T21:32:28;10.10;;;2.60;;
9128;SDS011;4599;50.906;6.786;2023-02-24T21:36:30;11.27;;;2.37;;
9128;SDS011;4599;50.906;6.786;2023-02-24T21:40:33;8.67;;;2.50;;
9128;SDS011;4599;50.906;6.786;2023-02-24T21:44:35;10.40;;;2.40;;
9128;SDS011;4599;50.906;6.786;2023-02-24T21:48:37;11.30;;;2.97;;
9128;SDS011;4599;50.906;6.786;2023-02-24T21:52:39;14.47;;;2.60;;
9128;SDS011;4599;50.906;6.786;2023-02-24T21:56:42;11.53;;;3.00;;
9128;SDS011;4599;50.906;6.786;2023-02-24T22:00:43;18.10;;;2.93;;
9128;SDS011;4599;50.906;6.786;2023-02-24T22:04:47;17.10;;;3.10;;
9128;SDS011;4599;50.906;6.786;2023-02-24T22:08:48;9.70;;;2.73;;
9128;SDS011;4599;50.906;6.786;2023-02-24T22:12:52;10.43;;;3.30;;
9128;SDS011;4599;50.906;6.786;2023-02-24T22:16:56;10.07;;;3.00;;
9128;SDS011;4599;50.906;6.786;2023-02-24T22:20:58;17.53;;;3.43;;
9128;SDS011;4599;50.906;6.786;2023-02-24T22:24:59;10.67;;;3.03;;
9128;SDS011;4599;50.906;6.786;2023-02-24T22:29:02;14.60;;;3.10;;
9128;SDS011;4599;50.906;6.786;2023-02-24T22:33:04;12.43;;;2.93;;
9128;SDS011;4599;50.906;6.786;2023-02-24T22:37:05;13.83;;;3.53;;
9128;SDS011;4599;50.906;6.786;2023-02-24T22:41:09;11.50;;;3.13;;
9128;SDS011;4599;50.906;6.786;2023-02-24T22:45:13;13.80;;;3.23;;
9128;SDS011;4599;50.906;6.786;2023-02-24T22:49:15;14.70;;;3.37;;
9128;SDS011;4599;50.906;6.786;2023-02-24T22:53:16;15.73;;;3.40;;
9128;SDS011;4599;50.906;6.786;2023-02-24T22:57:18;14.60;;;3.17;;
9128;SDS011;4599;50.906;6.786;2023-02-24T23:01:22;13.10;;;3.33;;
9128;SDS011;4599;50.906;6.786;2023-02-24T23:05:24;13.37;;;3.63;;
9128;SDS011;4599;50.906;6.786;2023-02-24T23:09:26;15.63;;;3.57;;
9128;SDS011;4599;50.906;6.786;2023-02-24T23:13:27;13.37;;;3.37;;
9128;SDS011;4599;50.906;6.786;2023-02-24T23:17:30;19.17;;;3.47;;
9128;SDS011;4599;50.906;6.786;2023-02-24T23:21:33;17.17;;;3.40;;
9128;SDS011;4599;50.906;6.786;2023-02-24T23:25:35;19.37;;;3.70;;
9128;SDS011;4599;50.906;6.786;2023-02-24T23:29:37;15.70;;;3.80;;
9128;SDS011;4599;50.906;6.786;2023-02-24T23:33:40;18.63;;;3.47;;
9128;SDS011;4599;50.906;6.786;2023-02-24T23:37:41;15.47;;;3.80;;
9128;SDS011;4599;50.906;6.786;2023-02-24T23:41:44;17.40;;;3.47;;
9128;SDS011;4599;50.906;6.786;2023-02-24T23:45:45;13.37;;;3.10;;
9128;SDS011;4599;50.906;6.786;2023-02-24T23:49:48;15.00;;;3.33;;
9128;SDS011;4599;50.906;6.786;2023-02-24T23:53:49;15.80;;;2.87;;
9128;SDS011;4599;50.906;6.786;2023-02-24T23:57:51;15.43;;;3.53;;
